Time;durP1;ratioP1;P1;durP2;ratioP2;P2;SDS_P1;SDS_P2;PMS_P1;PMS_P2;Temp;Humidity;BMP_temperature;BMP_pressure;BME280_temperature;BME280_humidity;BME280_pressure;Samples;Min_cycle;Max_cycle;Signal;HPM_P1;HPM_P2
2021/08/05 00:00:35;;;;;;;2.78;2.15;;;;;;;23.18;65.08;99319.06;4488108;31;34082;-81
2021/08/05 00:03:03;;;;;;;4.10;2.12;;;;;;;23.20;64.49;99332.34;4477971;31;33131;-81
2021/08/05 00:05:30;;;;;;;1.65;1.55;;;;;;;23.53;63.34;99319.91;4491649;31;33036;-81
2021/08/05 00:07:58;;;;;;;7.82;1.90;;;;;;;24.00;62.18;99316.75;4482662;31;33865;-81
2021/08/05 00:10:26;;;;;;;2.60;2.40;;;;;;;23.88;63.18;99313.50;4465896;31;33671;-81
2021/08/05 00:12:53;;;;;;;2.33;2.00;;;;;;;23.71;64.18;99307.22;4475789;31;33835;-81
2021/08/05 00:15:21;;;;;;;4.47;2.37;;;;;;;23.89;63.60;99308.97;4477072;31;33062;-81
2021/08/05 00:17:49;;;;;;;4.82;2.05;;;;;;;23.92;63.36;99308.63;4479361;31;33036;-81
2021/08/05 00:20:17;;;;;;;1.95;1.58;;;;;;;23.86;63.24;99298.50;4476093;31;34754;-81
2021/08/05 00:22:44;;;;;;;2.53;2.33;;;;;;;24.10;60.92;99273.44;4489901;31;34115;-81
2021/08/05 00:25:12;;;;;;;2.35;1.70;;;;;;;23.81;62.05;99277.41;4483548;31;33595;-81
2021/08/05 00:27:40;;;;;;;1.98;1.40;;;;;;;23.87;61.91;99275.91;4479777;31;34392;-81
2021/08/05 00:30:10;;;;;;;2.30;1.45;;;;;;;24.01;60.87;99261.78;4487069;31;34056;-81
2021/08/05 00:32:38;;;;;;;2.17;1.40;;;;;;;24.04;60.35;99258.78;4478164;31;34051;-81
2021/08/05 00:35:07;;;;;;;6.15;2.00;;;;;;;24.00;60.05;99257.41;4481567;32;33729;-81
2021/08/05 00:37:34;;;;;;;1.95;1.40;;;;;;;24.13;59.25;99246.13;4473706;31;34193;-81
2021/08/05 00:40:04;;;;;;;3.70;1.85;;;;;;;24.10;58.63;99235.69;4482377;31;35182;-81
2021/08/05 00:42:32;;;;;;;1.87;1.40;;;;;;;24.07;58.64;99239.56;4485927;31;33585;-81
2021/08/05 00:45:00;;;;;;;2.03;1.30;;;;;;;23.61;59.25;99231.00;4482230;31;33126;-81
2021/08/05 00:47:28;;;;;;;3.28;1.40;;;;;;;23.82;58.55;99233.28;4482085;31;34961;-80
2021/08/05 00:49:56;;;;;;;2.55;1.50;;;;;;;23.66;58.90;99238.63;4486585;31;34981;-81
2021/08/05 00:52:24;;;;;;;6.07;1.65;;;;;;;24.02;57.82;99234.66;4461751;31;33319;-81
2021/08/05 00:54:53;;;;;;;3.35;1.52;;;;;;;24.12;57.57;99234.50;4490930;31;33223;-81
2021/08/05 00:57:21;;;;;;;3.03;1.25;;;;;;;24.07;57.40;99234.19;4478510;31;33868;-81
2021/08/05 00:59:48;;;;;;;2.15;1.27;;;;;;;24.17;57.07;99224.06;4482096;31;33643;-81
2021/08/05 01:02:20;;;;;;;2.42;1.45;;;;;;;24.17;57.52;99224.06;4469407;31;33868;-81
2021/08/05 01:04:52;;;;;;;3.63;1.70;;;;;;;24.12;57.42;99214.75;4469275;31;33179;-81
2021/08/05 01:07:26;;;;;;;;;;;;;;;24.27;57.05;99200.44;4475827;31;32945;-81
2021/08/05 01:10:10;;;;;;;2.20;1.40;;;;;;;24.36;56.59;99190.53;4476023;31;35171;-81
2021/08/05 01:13:04;;;;;;;1.87;1.23;;;;;;;24.36;56.81;99189.66;4481718;31;34191;-81
2021/08/05 01:15:32;;;;;;;1.23;1.12;;;;;;;24.07;58.04;99182.06;4485736;31;32877;-81
2021/08/05 01:18:05;;;;;;;4.93;2.28;;;;;;;23.99;58.42;99183.75;4464450;31;33092;-81
2021/08/05 01:20:33;;;;;;;1.83;1.30;;;;;;;24.06;58.01;99170.44;4482813;31;34042;-81
2021/08/05 01:23:23;;;;;;;1.42;1.25;;;;;;;24.17;57.86;99164.72;4484761;31;32363;-81
2021/08/05 01:26:23;;;;;;;2.78;2.28;;;;;;;23.74;58.82;99173.97;4486764;31;33443;-81
2021/08/05 01:28:51;;;;;;;1.65;1.50;;;;;;;23.94;58.48;99166.41;4465714;31;34371;-81
2021/08/05 01:31:21;;;;;;;4.50;1.45;;;;;;;24.03;57.93;99160.00;4485729;31;33727;-81
2021/08/05 01:33:49;;;;;;;2.03;1.50;;;;;;;23.85;58.50;99160.16;4484032;31;33605;-81
2021/08/05 01:36:18;;;;;;;1.90;1.70;;;;;;;23.86;58.68;99164.53;4478666;31;32438;-82
2021/08/05 01:38:48;;;;;;;1.80;1.40;;;;;;;24.15;57.45;99158.62;4474412;31;34352;-81
2021/08/05 01:41:16;;;;;;;2.05;1.50;;;;;;;24.19;56.98;99151.06;4487436;31;34832;-81
2021/08/05 01:43:46;;;;;;;2.10;1.70;;;;;;;24.44;56.37;99144.62;4480742;31;33682;-81
2021/08/05 01:46:14;;;;;;;1.70;1.48;;;;;;;24.59;55.84;99144.75;4467731;31;32715;-81
2021/08/05 01:48:41;;;;;;;1.70;1.40;;;;;;;24.46;56.21;99141.78;4480046;31;33501;-81
2021/08/05 01:51:10;;;;;;;5.68;2.15;;;;;;;24.06;57.81;99135.38;4471477;31;33058;-81
2021/08/05 01:53:38;;;;;;;1.33;1.23;;;;;;;24.30;56.83;99139.06;4488461;31;34630;-81
2021/08/05 01:56:07;;;;;;;2.67;1.60;;;;;;;24.38;56.83;99136.38;4483429;31;34278;-81
2021/08/05 01:58:35;;;;;;;2.12;1.90;;;;;;;24.38;56.59;99136.38;4474593;31;32973;-81
2021/08/05 02:01:05;;;;;;;2.62;1.58;;;;;;;24.31;56.82;99133.50;4491887;31;34069;-81
2021/08/05 02:03:33;;;;;;;2.58;1.75;;;;;;;24.57;56.09;99127.06;4468783;31;34227;-81
2021/08/05 02:06:20;;;;;;;2.47;1.70;;;;;;;24.51;56.72;99128.59;4466479;31;34240;-81
2021/08/05 02:08:48;;;;;;;2.60;1.90;;;;;;;24.45;56.95;99131.97;4466347;32;34341;-81
2021/08/05 02:11:16;;;;;;;2.83;1.90;;;;;;;24.68;55.87;99132.09;4482900;31;33435;-81
2021/08/05 02:13:44;;;;;;;2.00;1.70;;;;;;;24.64;56.01;99123.50;4473191;31;33726;-81
2021/08/05 02:16:13;;;;;;;3.05;1.90;;;;;;;24.50;56.62;99124.22;4487591;31;34140;-81
2021/08/05 02:18:45;;;;;;;3.33;2.15;;;;;;;24.59;55.96;99115.06;4474166;31;33833;-81
2021/08/05 02:21:14;;;;;;;3.85;1.60;;;;;;;24.59;56.08;99108.84;4477971;31;32876;-81
2021/08/05 02:23:42;;;;;;;2.78;2.00;;;;;;;24.18;57.02;99108.91;4473797;31;33788;-81
2021/08/05 02:26:10;;;;;;;2.65;1.87;;;;;;;24.56;55.85;99107.34;4472788;31;32808;-81
2021/08/05 02:28:38;;;;;;;2.20;2.00;;;;;;;24.45;56.33;99100.47;4469120;31;32924;-81
2021/08/05 02:31:07;;;;;;;2.00;1.80;;;;;;;24.50;56.36;99098.09;4471003;32;33652;-81
2021/08/05 02:33:37;;;;;;;1.87;1.67;;;;;;;24.63;55.82;99092.13;4482158;31;32796;-80
2021/08/05 02:36:05;;;;;;;3.40;1.80;;;;;;;24.73;55.29;99081.94;4489039;31;34147;-81
2021/08/05 02:38:32;;;;;;;2.85;1.90;;;;;;;24.24;57.22;99082.09;4491596;31;33515;-81
2021/08/05 02:41:00;;;;;;;4.05;2.20;;;;;;;24.27;56.78;99079.06;4444926;32;33362;-81
2021/08/05 02:43:32;;;;;;;4.35;2.40;;;;;;;24.36;56.33;99074.50;4499116;31;34533;-81
2021/08/05 02:46:00;;;;;;;2.58;2.35;;;;;;;23.74;58.66;99069.69;4467648;31;33203;-80
2021/08/05 02:48:29;;;;;;;4.65;1.92;;;;;;;23.98;58.14;99065.28;4460119;31;33875;-81
2021/08/05 02:50:58;;;;;;;2.78;1.92;;;;;;;24.22;57.34;99050.91;4483054;31;34621;-81
2021/08/05 02:53:27;;;;;;;2.03;1.73;;;;;;;24.10;57.80;99053.12;4482112;31;33749;-81
2021/08/05 02:55:56;;;;;;;2.33;2.12;;;;;;;24.09;57.86;99061.38;4487880;31;33527;-81
2021/08/05 02:58:23;;;;;;;3.83;2.80;;;;;;;24.31;57.31;99049.00;4483945;31;34723;-81
2021/08/05 03:00:51;;;;;;;2.75;2.30;;;;;;;24.08;58.09;99044.38;4467805;31;34276;-81
2021/08/05 03:03:22;;;;;;;3.75;2.55;;;;;;;24.14;58.02;99037.44;4471960;31;33432;-81
2021/08/05 03:05:51;;;;;;;5.95;2.15;;;;;;;24.24;57.60;99035.38;4470378;31;33367;-82
2021/08/05 03:08:19;;;;;;;2.40;1.98;;;;;;;24.07;58.36;99042.69;4467610;32;33982;-81
2021/08/05 03:10:48;;;;;;;2.75;2.47;;;;;;;24.23;57.80;99031.84;4473099;31;35131;-81
2021/08/05 03:13:17;;;;;;;4.05;2.42;;;;;;;24.05;58.53;99022.28;4487540;31;32210;-81
2021/08/05 03:15:44;;;;;;;3.17;2.33;;;;;;;24.15;58.25;99021.06;4484313;31;34419;-81
2021/08/05 03:18:12;;;;;;;3.12;2.33;;;;;;;23.94;58.97;99020.81;4468446;32;34485;-81
2021/08/05 03:20:41;;;;;;;2.33;2.08;;;;;;;24.08;58.49;99012.00;4481869;31;33689;-81
2021/08/05 03:23:09;;;;;;;3.08;2.53;;;;;;;24.06;58.53;99007.78;4483850;31;33976;-81
2021/08/05 03:25:36;;;;;;;4.87;2.85;;;;;;;23.79;59.78;99006.34;4470233;32;32291;-81
2021/08/05 03:28:04;;;;;;;3.78;2.25;;;;;;;23.62;60.09;99017.09;4472818;31;33540;-81
2021/08/05 03:30:32;;;;;;;3.45;2.45;;;;;;;23.73;59.98;99015.94;4492556;31;34110;-81
2021/08/05 03:33:00;;;;;;;2.78;2.15;;;;;;;23.79;59.82;99022.50;4474822;31;33884;-81
2021/08/05 03:35:28;;;;;;;3.97;2.10;;;;;;;23.75;59.76;99011.22;4483981;31;33870;-81
2021/08/05 03:37:56;;;;;;;3.03;2.55;;;;;;;23.85;59.66;99011.03;4476482;31;33254;-81
2021/08/05 03:40:23;;;;;;;3.95;2.00;;;;;;;23.69;59.63;98996.59;4489316;31;33730;-81
2021/08/05 03:42:51;;;;;;;2.80;2.37;;;;;;;23.91;58.80;99005.78;4466895;31;34077;-80
2021/08/05 03:45:19;;;;;;;7.68;2.65;;;;;;;23.75;59.75;99008.53;4458615;31;33191;-80
2021/08/05 03:47:46;;;;;;;2.47;2.28;;;;;;;23.72;59.71;99007.00;4492650;31;34573;-81
2021/08/05 03:50:15;;;;;;;4.30;2.62;;;;;;;23.98;59.01;99005.97;4480035;31;35095;-81
2021/08/05 03:52:42;;;;;;;3.12;2.15;;;;;;;23.90;59.25;99009.50;4464759;31;33510;-81
2021/08/05 03:55:13;;;;;;;2.47;2.28;;;;;;;23.85;59.70;99000.25;4485120;31;33113;-81
2021/08/05 03:57:42;;;;;;;4.68;2.30;;;;;;;23.75;59.78;99016.63;4489074;31;33538;-81
2021/08/05 04:00:12;;;;;;;4.87;2.58;;;;;;;23.45;60.77;99031.56;4482615;31;33864;-81
2021/08/05 04:02:41;;;;;;;4.37;2.53;;;;;;;23.87;59.25;99036.81;4474080;31;33182;-81
2021/08/05 04:05:10;;;;;;;3.55;2.50;;;;;;;23.72;59.32;99033.13;4481767;31;33801;-81
2021/08/05 04:07:38;;;;;;;4.32;2.58;;;;;;;23.89;59.65;99033.97;4493704;31;33703;-81
2021/08/05 04:10:06;;;;;;;2.92;2.50;;;;;;;23.84;59.49;99030.94;4469221;31;33311;-81
2021/08/05 04:12:34;;;;;;;2.55;2.22;;;;;;;23.94;59.13;99018.09;4485720;31;34499;-81
2021/08/05 04:15:02;;;;;;;3.70;2.47;;;;;;;24.12;58.78;99024.13;4471580;31;32699;-80
2021/08/05 04:17:30;;;;;;;3.90;2.25;;;;;;;24.03;59.45;99030.56;4477995;31;34634;-81
2021/08/05 04:19:57;;;;;;;4.82;2.80;;;;;;;23.89;59.83;99024.00;4487744;31;34883;-81
2021/08/05 04:22:25;;;;;;;4.30;2.55;;;;;;;23.92;61.44;99012.03;4471374;31;33884;-81
2021/08/05 04:24:53;;;;;;;5.20;3.58;;;;;;;24.07;60.03;99006.75;4472349;31;32454;-81
2021/08/05 04:27:20;;;;;;;3.87;2.87;;;;;;;24.08;61.01;99000.38;4479226;31;33567;-81
2021/08/05 04:29:48;;;;;;;4.72;3.08;;;;;;;24.18;60.51;98980.28;4472251;31;34028;-81
2021/08/05 04:32:16;;;;;;;3.47;2.80;;;;;;;23.76;63.13;98986.78;4473644;31;35046;-81
2021/08/05 04:34:43;;;;;;;3.90;3.05;;;;;;;23.92;62.03;98987.75;4493366;31;33601;-81
2021/08/05 04:37:11;;;;;;;5.18;3.25;;;;;;;23.43;63.76;98975.16;4491557;31;34270;-81
2021/08/05 04:39:39;;;;;;;4.68;3.17;;;;;;;23.47;63.87;98964.91;4486676;31;34750;-81
2021/08/05 04:42:07;;;;;;;5.53;3.05;;;;;;;23.57;62.37;98954.78;4474642;31;33872;-81
2021/08/05 04:44:35;;;;;;;3.28;2.97;;;;;;;23.83;61.91;98959.13;4482719;31;34146;-82
2021/08/05 04:47:03;;;;;;;6.55;3.70;;;;;;;23.78;61.09;98956.94;4471805;31;33959;-81
2021/08/05 04:49:30;;;;;;;5.35;3.15;;;;;;;23.66;62.69;98963.72;4468332;31;34387;-81
2021/08/05 04:51:58;;;;;;;6.03;3.67;;;;;;;23.49;64.10;98957.47;4484828;31;33983;-81
2021/08/05 04:54:26;;;;;;;4.45;3.42;;;;;;;23.40;65.36;98961.19;4482069;31;33134;-81
2021/08/05 04:56:54;;;;;;;5.22;3.00;;;;;;;23.65;63.84;98946.72;4475610;31;33953;-81
2021/08/05 04:59:21;;;;;;;3.65;3.12;;;;;;;23.89;62.45;98932.34;4477550;31;33634;-81
2021/08/05 05:01:49;;;;;;;3.42;3.12;;;;;;;23.72;63.59;98942.31;4474437;31;32556;-81
2021/08/05 05:04:17;;;;;;;4.00;3.35;;;;;;;23.54;63.74;98928.16;4486613;31;33143;-81
2021/08/05 05:06:44;;;;;;;5.53;3.90;;;;;;;23.83;62.12;98926.78;4480864;31;33877;-81
2021/08/05 05:09:12;;;;;;;5.12;3.60;;;;;;;23.88;62.07;98919.00;4481204;31;34774;-81
2021/08/05 05:11:39;;;;;;;8.52;3.53;;;;;;;23.93;62.26;98911.28;4482637;31;33561;-81
2021/08/05 05:14:07;;;;;;;6.93;4.05;;;;;;;23.66;63.22;98917.91;4463827;31;32019;-81
2021/08/05 05:16:35;;;;;;;3.60;3.25;;;;;;;23.85;62.38;98916.69;4471338;31;34383;-81
2021/08/05 05:19:03;;;;;;;4.68;3.47;;;;;;;23.77;62.53;98928.31;4493566;31;33795;-81
2021/08/05 05:21:30;;;;;;;4.12;3.58;;;;;;;24.01;61.94;98935.50;4468303;31;33960;-81
2021/08/05 05:23:58;;;;;;;5.68;3.65;;;;;;;23.87;62.59;98922.72;4465508;31;34558;-81
2021/08/05 05:26:26;;;;;;;4.00;3.35;;;;;;;23.59;63.35;98909.63;4481690;31;34668;-81
2021/08/05 05:28:53;;;;;;;5.50;3.62;;;;;;;23.54;63.95;98901.22;4483387;31;33666;-81
2021/08/05 05:31:21;;;;;;;3.40;3.10;;;;;;;23.58;64.55;98907.94;4491629;31;34120;-81
2021/08/05 05:33:49;;;;;;;3.40;3.10;;;;;;;23.66;64.44;98905.28;4475933;31;33540;-81
2021/08/05 05:36:16;;;;;;;5.15;3.53;;;;;;;23.74;63.82;98881.00;4472654;31;33011;-81
2021/08/05 05:38:44;;;;;;;4.40;3.53;;;;;;;24.07;62.41;98859.31;4494922;31;34196;-81
2021/08/05 05:41:11;;;;;;;5.82;3.47;;;;;;;24.18;61.70;98829.22;4472243;31;32916;-81
2021/08/05 05:43:39;;;;;;;4.15;3.42;;;;;;;23.97;62.32;98827.13;4487559;31;33549;-81
2021/08/05 05:46:07;;;;;;;11.25;3.47;;;;;;;23.76;63.56;98816.97;4469859;31;33976;-81
2021/08/05 05:48:34;;;;;;;11.43;3.80;;;;;;;23.40;64.52;98813.03;4465755;31;34773;-81
2021/08/05 05:51:02;;;;;;;5.93;3.42;;;;;;;23.17;64.69;98824.53;4488683;31;34277;-81
2021/08/05 05:53:29;;;;;;;5.32;3.58;;;;;;;23.32;64.32;98827.37;4469917;31;33358;-81
2021/08/05 05:55:57;;;;;;;3.62;3.22;;;;;;;23.49;63.43;98834.37;4487712;31;33017;-81
2021/08/05 05:58:25;;;;;;;5.05;3.28;;;;;;;23.50;63.08;98848.72;4471228;31;33598;-81
2021/08/05 06:00:53;;;;;;;4.65;3.40;;;;;;;23.80;62.41;98852.50;4471153;31;33872;-80
2021/08/05 06:03:21;;;;;;;9.30;3.65;;;;;;;23.97;61.89;98859.50;4462636;31;32525;-81
2021/08/05 06:05:49;;;;;;;7.97;3.17;;;;;;;23.86;62.63;98857.19;4484664;31;33653;-81
2021/08/05 06:08:16;;;;;;;4.18;3.40;;;;;;;23.73;62.33;98870.38;4483405;31;33760;-81
2021/08/05 06:10:44;;;;;;;9.00;3.03;;;;;;;23.56;61.55;98885.75;4472910;31;34125;-81
2021/08/05 06:13:11;;;;;;;16.33;5.10;;;;;;;23.46;62.18;98882.41;4480131;31;33714;-81
2021/08/05 06:15:39;;;;;;;10.30;3.97;;;;;;;23.75;62.03;98874.59;4471595;31;34579;-81
2021/08/05 06:18:07;;;;;;;4.22;3.30;;;;;;;24.02;62.20;98862.53;4467590;32;34482;-81
2021/08/05 06:20:35;;;;;;;5.00;3.30;;;;;;;23.99;60.55;98843.16;4480242;31;33878;-81
2021/08/05 06:23:03;;;;;;;8.52;4.62;;;;;;;23.89;60.39;98818.28;4478429;31;32680;-81
2021/08/05 06:25:31;;;;;;;8.48;4.12;;;;;;;23.95;60.83;98801.38;4477143;31;34052;-81
2021/08/05 06:27:58;;;;;;;6.75;3.92;;;;;;;23.83;61.91;98792.00;4480691;31;34025;-81
2021/08/05 06:30:26;;;;;;;5.95;3.40;;;;;;;23.71;61.33;98800.47;4476760;31;33266;-81
2021/08/05 06:32:53;;;;;;;4.82;3.20;;;;;;;23.65;61.96;98798.50;4469467;31;33651;-81
2021/08/05 06:35:21;;;;;;;3.67;3.25;;;;;;;23.62;61.45;98790.72;4482078;31;34558;-81
2021/08/05 06:37:49;;;;;;;4.47;3.45;;;;;;;23.59;61.91;98785.66;4492996;31;34038;-81
2021/08/05 06:40:18;;;;;;;3.95;3.22;;;;;;;23.38;62.93;98782.72;4481144;31;33994;-81
2021/08/05 06:42:45;;;;;;;6.35;3.47;;;;;;;23.69;60.92;98775.56;4485197;31;34360;-81
2021/08/05 06:45:13;;;;;;;6.03;2.90;;;;;;;23.36;61.75;98768.59;4472548;31;33642;-81
2021/08/05 06:47:46;;;;;;;12.13;4.22;;;;;;;23.67;61.01;98757.88;4487419;31;34037;-81
2021/08/05 06:50:17;;;;;;;6.95;3.20;;;;;;;23.48;61.72;98735.72;4487735;31;33614;-81
2021/08/05 06:52:47;;;;;;;4.55;3.50;;;;;;;23.82;60.53;98736.41;4484979;31;33149;-81
2021/08/05 06:55:15;;;;;;;4.62;2.90;;;;;;;23.74;59.97;98738.16;4476727;31;34363;-81
2021/08/05 06:57:42;;;;;;;3.83;3.37;;;;;;;23.57;60.43;98730.28;4486824;31;34688;-81
2021/08/05 07:00:12;;;;;;;6.18;3.03;;;;;;;23.69;nan;98740.53;4481836;31;34289;-81
2021/08/05 07:02:40;;;;;;;5.47;3.20;;;;;;;23.93;59.72;98734.16;4490681;31;33264;-81
2021/08/05 07:05:10;;;;;;;5.65;3.10;;;;;;;24.15;58.82;98727.09;4484507;31;33558;-81
2021/08/05 07:07:38;;;;;;;3.22;2.85;;;;;;;24.18;57.66;98726.75;4473184;31;34737;-81
2021/08/05 07:10:07;;;;;;;5.57;3.30;;;;;;;24.20;58.57;98727.38;4486628;31;34110;-81
2021/08/05 07:12:34;;;;;;;3.87;3.28;;;;;;;24.04;60.58;98722.13;4486236;31;33356;-81
2021/08/05 07:15:02;;;;;;;5.53;3.00;;;;;;;23.91;62.08;98721.88;4478930;31;33888;-81
2021/08/05 07:17:30;;;;;;;4.70;3.53;;;;;;;24.08;62.11;98717.22;4492881;31;33957;-80
2021/08/05 07:19:57;;;;;;;5.00;3.40;;;;;;;23.99;62.42;98717.25;4476789;31;33795;-81
2021/08/05 07:22:25;;;;;;;6.85;3.60;;;;;;;23.65;63.95;98725.72;4487223;31;33113;-81
2021/08/05 07:24:53;;;;;;;3.60;2.78;;;;;;;23.58;64.01;98730.09;4473030;31;33237;-81
2021/08/05 07:27:20;;;;;;;4.53;3.03;;;;;;;23.73;63.59;98733.75;4489457;31;33719;-81
2021/08/05 07:29:48;;;;;;;4.45;3.35;;;;;;;23.74;63.96;98730.06;4472276;31;33777;-81
2021/08/05 07:32:16;;;;;;;5.00;3.47;;;;;;;23.80;63.40;98724.97;4478625;31;33192;-81
2021/08/05 07:34:43;;;;;;;6.18;4.12;;;;;;;23.67;64.24;98720.16;4460641;31;33838;-81
2021/08/05 07:37:11;;;;;;;7.18;3.60;;;;;;;23.71;64.41;98708.84;4475985;31;34036;-81
2021/08/05 07:39:39;;;;;;;6.78;3.70;;;;;;;23.88;63.95;98693.44;4486120;31;34524;-81
2021/08/05 07:42:07;;;;;;;5.87;4.32;;;;;;;24.33;62.22;98690.87;4469022;31;33172;-81
2021/08/05 07:44:35;;;;;;;3.85;3.17;;;;;;;24.07;63.52;98686.72;4465597;31;32713;-81
2021/08/05 07:47:02;;;;;;;3.35;2.60;;;;;;;24.26;60.11;98680.81;4457196;31;33116;-81
2021/08/05 07:49:30;;;;;;;3.67;3.12;;;;;;;24.13;60.93;98669.81;4466418;31;34412;-81
2021/08/05 07:51:59;;;;;;;3.45;3.15;;;;;;;24.02;62.17;98672.91;4489159;31;34368;-81
2021/08/05 07:54:27;;;;;;;6.82;3.55;;;;;;;24.28;60.41;98681.47;4475278;31;33903;-81
2021/08/05 07:56:54;;;;;;;3.70;2.75;;;;;;;24.18;60.56;98680.88;4496772;31;32996;-81
2021/08/05 07:59:22;;;;;;;4.35;3.58;;;;;;;24.14;61.02;98670.66;4489023;31;32702;-81
2021/08/05 08:01:50;;;;;;;4.90;3.97;;;;;;;24.08;62.00;98682.16;4477312;31;32383;-81
2021/08/05 08:04:18;;;;;;;6.97;4.18;;;;;;;23.94;63.08;98676.53;4489191;31;33985;-82
2021/08/05 08:06:45;;;;;;;6.45;4.18;;;;;;;23.63;64.40;98690.00;4486447;31;33973;-81
2021/08/05 08:09:14;;;;;;;9.35;5.28;;;;;;;23.57;64.65;98712.25;4466963;32;34301;-81
2021/08/05 08:11:43;;;;;;;7.20;5.68;;;;;;;23.19;67.30;98728.25;4484177;31;33249;-81
2021/08/05 08:14:11;;;;;;;7.87;4.37;;;;;;;23.09;68.07;98738.38;4459326;31;34584;-81
2021/08/05 08:16:40;;;;;;;5.18;4.53;;;;;;;23.59;66.07;98753.34;4472750;31;34310;-81
2021/08/05 08:19:09;;;;;;;9.30;4.80;;;;;;;23.66;65.73;98781.31;4493202;31;34227;-81
2021/08/05 08:21:36;;;;;;;7.97;5.20;;;;;;;23.57;66.08;98820.03;4486310;31;33870;-81
2021/08/05 08:24:04;;;;;;;9.05;5.62;;;;;;;23.48;66.40;98853.41;4465877;32;34131;-81
2021/08/05 08:26:32;;;;;;;7.25;5.40;;;;;;;23.39;65.96;98876.00;4482565;31;35022;-81
2021/08/05 08:28:59;;;;;;;8.88;5.80;;;;;;;22.93;67.36;98871.19;4462368;31;32878;-81
2021/08/05 08:31:31;;;;;;;8.35;4.72;;;;;;;22.77;67.83;98859.53;4488640;31;32852;-81
2021/08/05 08:33:59;;;;;;;7.68;4.82;;;;;;;22.55;67.65;98845.75;4489024;31;33954;-81
2021/08/05 08:36:27;;;;;;;6.97;5.05;;;;;;;22.73;66.87;98841.00;4490947;31;34008;-81
2021/08/05 08:38:58;;;;;;;8.80;5.60;;;;;;;22.52;67.89;98837.16;4475810;31;34706;-81
2021/08/05 08:41:26;;;;;;;8.07;4.80;;;;;;;22.53;68.00;98839.66;4482784;31;33680;-81
2021/08/05 08:43:53;;;;;;;6.37;5.25;;;;;;;22.56;68.14;98833.97;4472312;31;33579;-81
2021/08/05 08:46:21;;;;;;;8.63;5.45;;;;;;;22.08;71.10;98832.00;4476679;31;34128;-81
2021/08/05 08:48:53;;;;;;;10.55;5.95;;;;;;;21.99;71.30;98839.19;4491345;31;33976;-82
2021/08/05 08:51:21;;;;;;;15.43;5.80;;;;;;;21.95;72.03;98827.06;4476056;31;33378;-81
2021/08/05 08:53:50;;;;;;;7.53;5.40;;;;;;;22.22;70.98;98834.91;4466205;31;33669;-82
2021/08/05 08:56:21;;;;;;;7.43;5.75;;;;;;;22.64;69.54;98833.09;4482600;31;33996;-81
2021/08/05 08:58:50;;;;;;;9.77;5.70;;;;;;;22.78;69.07;98823.53;4486742;31;33881;-82
2021/08/05 09:01:17;;;;;;;10.43;5.75;;;;;;;22.56;70.06;98827.75;4478927;31;33991;-81
2021/08/05 09:03:46;;;;;;;6.60;5.25;;;;;;;22.48;70.73;98825.88;4480442;31;34650;-80
2021/08/05 09:06:14;;;;;;;6.15;5.15;;;;;;;22.52;70.61;98824.53;4488880;31;34133;-81
2021/08/05 09:08:41;;;;;;;10.75;5.30;;;;;;;22.56;70.35;98823.19;4490132;31;33485;-81
2021/08/05 09:11:10;;;;;;;7.15;5.25;;;;;;;22.60;70.15;98818.31;4478079;31;33099;-81
2021/08/05 09:13:38;;;;;;;7.80;5.45;;;;;;;22.58;70.56;98801.50;4476675;31;33680;-81
2021/08/05 09:16:23;;;;;;;9.10;5.18;;;;;;;22.58;70.45;98790.75;4478171;31;34472;-81
2021/08/05 09:18:51;;;;;;;7.85;5.53;;;;;;;23.11;67.28;98760.59;4472525;31;34451;-81
2021/08/05 09:21:28;;;;;;;6.97;5.45;;;;;;;23.31;67.45;98738.63;4470168;31;32644;-81
2021/08/05 09:24:03;;;;;;;7.50;5.40;;;;;;;23.29;68.00;98711.06;4470245;31;33336;-81
2021/08/05 09:26:32;;;;;;;5.97;5.28;;;;;;;23.37;67.75;98689.47;4487279;31;33976;-81
2021/08/05 09:29:17;;;;;;;8.77;5.22;;;;;;;23.35;67.12;98680.72;4485805;31;34227;-80
2021/08/05 09:31:55;;;;;;;8.80;4.70;;;;;;;23.12;68.02;98675.25;4491910;31;33632;-81
2021/08/05 09:34:24;;;;;;;7.10;4.57;;;;;;;23.09;66.96;98671.06;4464666;32;33552;-81
2021/08/05 09:37:01;;;;;;;10.38;5.05;;;;;;;22.96;67.70;98670.78;4477646;31;33715;-81
2021/08/05 09:39:31;;;;;;;11.63;6.40;;;;;;;22.97;68.24;98650.91;4478167;31;34572;-81
2021/08/05 09:42:04;;;;;;;8.13;5.70;;;;;;;23.08;68.05;98647.88;4480580;31;33537;-81
2021/08/05 09:44:32;;;;;;;8.15;5.62;;;;;;;23.04;69.08;98638.44;4462447;31;34632;-81
2021/08/05 09:47:20;;;;;;;9.50;6.43;;;;;;;22.97;69.61;98634.75;4488817;31;34682;-81
2021/08/05 09:49:51;;;;;;;8.23;6.15;;;;;;;23.27;68.45;98613.44;4461916;31;32458;-81
2021/08/05 09:52:30;;;;;;;15.73;7.00;;;;;;;22.98;68.87;98612.25;4496321;31;33039;-81
2021/08/05 09:54:59;;;;;;;13.45;7.22;;;;;;;23.02;70.06;98601.94;4474180;31;33768;-81
2021/08/05 09:57:32;;;;;;;13.32;6.90;;;;;;;22.77;71.36;98585.03;4468376;31;34118;-82
2021/08/05 10:00:02;;;;;;;8.80;6.90;;;;;;;22.93;70.38;98563.44;4475994;31;34505;-81
2021/08/05 10:02:43;;;;;;;8.35;6.65;;;;;;;23.25;71.13;98535.50;4492456;31;33582;-81
2021/08/05 10:05:17;;;;;;;10.85;6.55;;;;;;;23.11;69.83;98502.09;4479842;31;34699;-81
2021/08/05 10:07:50;;;;;;;9.27;7.03;;;;;;;22.91;68.57;98473.97;4479158;31;32303;-81
2021/08/05 10:10:21;;;;;;;6.93;6.22;;;;;;;22.67;70.44;98461.47;4478829;32;32985;-81
2021/08/05 10:12:59;;;;;;;8.55;6.07;;;;;;;22.36;70.35;98472.19;4471217;32;33353;-81
2021/08/05 10:15:29;;;;;;;6.40;5.78;;;;;;;22.11;70.54;98483.03;4475443;31;33785;-82
2021/08/05 10:17:59;;;;;;;7.25;6.30;;;;;;;21.82;71.97;98541.84;4479313;31;33030;-81
2021/08/05 10:20:30;;;;;;;8.77;7.40;;;;;;;21.88;72.14;98597.59;4462281;31;33301;-82
2021/08/05 10:22:58;;;;;;;11.75;6.93;;;;;;;21.87;72.67;98637.06;4467904;31;33994;-82
2021/08/05 10:25:27;;;;;;;10.40;7.07;;;;;;;22.42;69.82;98654.41;4483776;31;33621;-82
2021/08/05 10:28:00;;;;;;;8.32;7.28;;;;;;;22.59;69.56;98653.34;4485798;31;33581;-81
2021/08/05 10:30:30;;;;;;;10.38;6.95;;;;;;;22.52;69.84;98649.69;4482575;31;33583;-82
2021/08/05 10:32:58;;;;;;;12.25;7.60;;;;;;;22.35;70.90;98667.69;4480050;31;32790;-81
2021/08/05 10:35:26;;;;;;;13.82;6.60;;;;;;;22.15;72.48;98685.16;4486486;31;33896;-81
2021/08/05 10:37:56;;;;;;;8.98;6.47;;;;;;;22.39;71.96;98701.28;4469521;31;34547;-82
2021/08/05 10:40:24;;;;;;;10.93;7.57;;;;;;;22.78;69.87;98707.81;4469662;31;34786;-81
2021/08/05 10:42:55;;;;;;;10.38;7.03;;;;;;;22.66;70.78;98707.34;4465820;31;32737;-81
2021/08/05 10:45:22;;;;;;;11.55;7.65;;;;;;;22.71;71.36;98713.87;4476783;31;34583;-82
2021/08/05 10:47:51;;;;;;;13.40;8.18;;;;;;;22.82;71.07;98709.12;4471952;31;33714;-81
2021/08/05 10:50:20;;;;;;;10.98;7.65;;;;;;;22.84;71.01;98699.91;4479448;31;34575;-82
2021/08/05 10:52:50;;;;;;;13.18;9.02;;;;;;;23.44;68.58;98674.28;4481366;31;33157;-82
2021/08/05 10:55:18;;;;;;;11.80;8.18;;;;;;;23.66;69.32;98657.34;4473332;31;33536;-81
2021/08/05 10:57:47;;;;;;;10.82;7.43;;;;;;;23.56;70.34;98656.69;4473060;31;33045;-81
2021/08/05 11:00:17;;;;;;;;;;;;;;;23.71;67.65;98649.56;4469341;31;33572;-81
2021/08/05 11:02:50;;;;;;;11.77;8.48;;;;;;;23.39;69.25;98637.09;4462945;31;33489;-81
2021/08/05 11:05:34;;;;;;;12.13;8.23;;;;;;;23.31;70.60;98642.53;4472400;31;34591;-81
2021/08/05 11:08:08;;;;;;;10.57;8.13;;;;;;;23.52;69.33;98639.22;4464468;31;34255;-81
2021/08/05 11:10:37;;;;;;;15.55;8.55;;;;;;;23.71;68.18;98643.34;4487430;31;34261;-81
2021/08/05 11:13:08;;;;;;;9.13;7.70;;;;;;;23.65;69.69;98642.19;4481550;31;33807;-82
2021/08/05 11:15:35;;;;;;;9.88;7.35;;;;;;;23.66;70.89;98640.34;4474214;31;33266;-81
2021/08/05 11:18:09;;;;;;;10.48;7.90;;;;;;;23.76;68.70;98655.25;4497063;31;33993;-81
2021/08/05 11:20:58;;;;;;;13.05;8.18;;;;;;;23.46;70.22;98650.72;4478985;31;33192;-81
2021/08/05 11:23:34;;;;;;;9.25;7.20;;;;;;;23.46;70.29;98656.09;4466478;31;32886;-82
2021/08/05 11:26:08;;;;;;;13.38;7.62;;;;;;;24.02;68.17;98659.44;4473227;31;33217;-82
2021/08/05 11:28:49;;;;;;;7.80;6.87;;;;;;;24.16;67.45;98664.03;4487195;31;34717;-82
2021/08/05 11:31:31;;;;;;;14.90;7.85;;;;;;;24.27;66.87;98660.91;4493161;31;33847;-82
2021/08/05 11:34:00;;;;;;;;;;;;;;;24.08;68.91;98660.59;4473555;31;32401;-82
2021/08/05 11:36:40;;;;;;;9.23;8.25;;;;;;;24.11;68.92;98658.34;4479964;32;34226;-82
2021/08/05 11:39:25;;;;;;;12.73;8.50;;;;;;;24.38;67.35;98645.34;4479025;31;34012;-82
2021/08/05 11:41:52;;;;;;;12.15;9.52;;;;;;;24.18;67.11;98651.22;4468596;31;33568;-82
2021/08/05 11:44:36;;;;;;;13.43;9.25;;;;;;;24.23;68.24;98648.81;4496783;31;33555;-82